createdAt,value
2023-04-28T00:01:06.944Z,98894.78
2023-04-28T00:03:35.145Z,98888.97
2023-04-28T00:06:04.394Z,98891.88
2023-04-28T00:08:32.486Z,98883.22
2023-04-28T00:11:00.933Z,98881.53
2023-04-28T00:13:29.053Z,98877.22
2023-04-28T00:15:57.324Z,98868.88
2023-04-28T00:18:29.242Z,98865.16
2023-04-28T00:20:57.650Z,98865.22
2023-04-28T00:23:25.794Z,98864.16
2023-04-28T00:25:54.370Z,98858.09
2023-04-28T00:28:33.663Z,98863.34
2023-04-28T00:31:03.014Z,98847.28
2023-04-28T00:33:32.799Z,98841.97
2023-04-28T00:36:01.990Z,98845.81
2023-04-28T00:38:30.809Z,98840.88
2023-04-28T00:40:59.041Z,98841.88
2023-04-28T00:43:27.107Z,98834.03
2023-04-28T00:45:55.256Z,98834.31
2023-04-28T00:48:24.406Z,98831.75
2023-04-28T00:50:54.433Z,98827.63
2023-04-28T00:53:22.984Z,98818.88
2023-04-28T00:55:53.878Z,98823.84
2023-04-28T00:58:22.084Z,98820.13
2023-04-28T01:00:50.320Z,98814.38
2023-04-28T01:03:18.478Z,98811.69
2023-04-28T01:05:47.086Z,98814.47
2023-04-28T01:08:17.282Z,98811.31
2023-04-28T01:10:45.592Z,98802.28
2023-04-28T01:13:13.859Z,98800.00
2023-04-28T01:15:42.378Z,98801.69
2023-04-28T01:18:10.859Z,98799.09
2023-04-28T01:20:40.787Z,98794.72
2023-04-28T01:23:13.895Z,98789.84
2023-04-28T01:25:45.008Z,98788.88
2023-04-28T01:28:13.543Z,98791.78
2023-04-28T01:30:41.662Z,98784.31
2023-04-28T01:33:09.790Z,98781.78
2023-04-28T01:35:37.929Z,98782.13
2023-04-28T01:38:06.234Z,98784.22
2023-04-28T01:40:34.347Z,98782.72
2023-04-28T01:43:03.892Z,98776.94
2023-04-28T01:45:31.895Z,98782.50
2023-04-28T01:48:00.024Z,98778.44
2023-04-28T01:50:28.075Z,98772.81
2023-04-28T01:52:56.180Z,98768.22
2023-04-28T01:55:24.369Z,98768.75
2023-04-28T01:57:52.724Z,98765.03
2023-04-28T02:00:22.895Z,98759.09
2023-04-28T02:02:51.597Z,98753.69
2023-04-28T02:05:20.192Z,98744.66
2023-04-28T02:07:48.703Z,98749.78
2023-04-28T02:10:17.004Z,98755.50
2023-04-28T02:12:44.969Z,98763.94
2023-04-28T02:15:12.978Z,98761.19
2023-04-28T02:17:42.801Z,98763.84
2023-04-28T02:20:14.475Z,98760.34
2023-04-28T02:22:42.711Z,98758.25
2023-04-28T02:25:11.093Z,98750.63
2023-04-28T02:27:39.529Z,98747.81
2023-04-28T02:30:08.793Z,98751.78
2023-04-28T02:32:37.186Z,98752.72
2023-04-28T02:35:08.058Z,98751.88
2023-04-28T02:37:36.450Z,98757.56
2023-04-28T02:40:04.736Z,98753.81
2023-04-28T02:42:33.000Z,98752.69
2023-04-28T02:45:01.110Z,98746.94
2023-04-28T02:47:29.222Z,98739.19
2023-04-28T02:49:57.624Z,98746.75
2023-04-28T02:52:27.106Z,98750.69
2023-04-28T02:54:57.717Z,98745.72
2023-04-28T02:57:26.354Z,98742.00
2023-04-28T02:59:54.384Z,98737.25
2023-04-28T03:02:23.311Z,98731.84
2023-04-28T03:04:51.724Z,98721.53
2023-04-28T03:07:20.010Z,98711.59
2023-04-28T03:09:49.939Z,98708.00
2023-04-28T03:12:17.958Z,98702.22
2023-04-28T03:14:46.615Z,98705.03
2023-04-28T03:17:15.510Z,98698.34
2023-04-28T03:19:43.547Z,98704.38
2023-04-28T03:22:12.026Z,98698.72
2023-04-28T03:24:40.168Z,98705.09
2023-04-28T03:27:09.649Z,98703.00
2023-04-28T03:29:38.729Z,98705.03
2023-04-28T03:32:07.951Z,98715.69
2023-04-28T03:34:36.220Z,98715.44
2023-04-28T03:37:04.416Z,98712.16
2023-04-28T03:39:32.690Z,98714.38
2023-04-28T03:42:01.239Z,98718.75
2023-04-28T03:44:30.825Z,98721.31
2023-04-28T03:46:58.953Z,98742.03
2023-04-28T03:49:27.706Z,98742.78
2023-04-28T03:51:55.681Z,98747.25
2023-04-28T03:54:23.904Z,98743.28
2023-04-28T03:56:51.935Z,98735.22
2023-04-28T03:59:19.976Z,98738.00
2023-04-28T04:01:49.684Z,98740.44
2023-04-28T04:04:18.451Z,98742.44
2023-04-28T04:06:46.973Z,98738.03
2023-04-28T04:09:15.494Z,98741.41
2023-04-28T04:11:43.698Z,98739.00
2023-04-28T04:14:12.085Z,98740.88
2023-04-28T04:16:40.523Z,98734.91
2023-04-28T04:19:09.896Z,98733.34
2023-04-28T04:21:37.940Z,98730.22
2023-04-28T04:24:06.421Z,98720.41
2023-04-28T04:26:34.453Z,98712.50
2023-04-28T04:29:02.550Z,98708.59
2023-04-28T04:31:32.040Z,98699.09
2023-04-28T04:34:00.146Z,98690.81
2023-04-28T04:36:29.806Z,98697.06
2023-04-28T04:38:58.110Z,98697.16
2023-04-28T04:41:27.322Z,98689.56
2023-04-28T04:43:55.673Z,98693.75
2023-04-28T04:46:24.268Z,98703.63
2023-04-28T04:48:52.416Z,98705.75
2023-04-28T04:51:20.787Z,98704.47
2023-04-28T04:53:50.332Z,98704.97
2023-04-28T04:56:18.656Z,98704.00
2023-04-28T04:58:46.879Z,98706.06
2023-04-28T05:01:15.617Z,98710.91
2023-04-28T05:03:44.905Z,98709.22
2023-04-28T05:06:13.548Z,98708.91
2023-04-28T05:08:42.031Z,98705.69
2023-04-28T05:11:11.934Z,98695.91
2023-04-28T05:13:40.913Z,98690.00
2023-04-28T05:16:09.432Z,98688.25
2023-04-28T05:18:37.637Z,98679.78
2023-04-28T05:21:06.437Z,98673.66
2023-04-28T05:23:34.548Z,98688.19
2023-04-28T05:26:04.289Z,98692.94
2023-04-28T05:28:35.581Z,98684.66
2023-04-28T05:31:03.850Z,98683.81
2023-04-28T05:33:32.099Z,98684.47
2023-04-28T05:36:00.966Z,98690.91
2023-04-28T05:38:29.329Z,98688.81
2023-04-28T05:40:57.925Z,98696.84
2023-04-28T05:43:25.943Z,98695.03
2023-04-28T05:45:55.752Z,98690.59
2023-04-28T05:48:24.120Z,98688.38
2023-04-28T05:50:53.333Z,98691.56
2023-04-28T05:53:21.718Z,98695.47
2023-04-28T05:55:49.838Z,98696.97
2023-04-28T05:58:18.024Z,98692.38
2023-04-28T06:00:46.092Z,98699.06
2023-04-28T06:03:19.188Z,98700.44
2023-04-28T06:05:47.771Z,98697.38
2023-04-28T06:08:16.323Z,98701.81
2023-04-28T06:10:44.673Z,98701.63
2023-04-28T06:13:14.625Z,98702.06
2023-04-28T06:15:43.169Z,98711.22
2023-04-28T06:18:11.589Z,98707.31
2023-04-28T06:20:41.153Z,98716.41
2023-04-28T06:23:09.526Z,98714.53
2023-04-28T06:25:38.131Z,98708.34
2023-04-28T06:28:07.705Z,98707.28
2023-04-28T06:30:36.969Z,98711.50
2023-04-28T06:33:05.561Z,98706.47
2023-04-28T06:35:35.934Z,98712.50
2023-04-28T06:38:06.149Z,98706.84
2023-04-28T06:40:34.396Z,98704.75
2023-04-28T06:43:03.072Z,98698.53
2023-04-28T06:45:31.279Z,98695.22
2023-04-28T06:47:59.452Z,98694.84
2023-04-28T06:50:27.509Z,98697.78
2023-04-28T06:52:55.517Z,98693.69
2023-04-28T06:55:25.059Z,98687.31
2023-04-28T06:57:53.378Z,98688.31
2023-04-28T07:00:21.690Z,98703.19
2023-04-28T07:02:49.938Z,98707.00
2023-04-28T07:05:18.400Z,98716.44
2023-04-28T07:07:48.880Z,98713.81
2023-04-28T07:10:17.096Z,98693.69
2023-04-28T07:12:46.841Z,98699.72
2023-04-28T07:15:14.974Z,98703.84
2023-04-28T07:17:43.264Z,98693.97
2023-04-28T07:20:11.801Z,98695.47
2023-04-28T07:22:40.140Z,98693.13
2023-04-28T07:25:09.992Z,98678.69
2023-04-28T07:27:38.095Z,98661.69
2023-04-28T07:30:25.861Z,98662.13
2023-04-28T07:32:55.791Z,98674.31
2023-04-28T07:35:24.450Z,98692.31
2023-04-28T07:37:53.115Z,98695.69
2023-04-28T07:40:21.989Z,98704.28
2023-04-28T07:42:49.986Z,98698.63
2023-04-28T07:45:19.551Z,98690.81
2023-04-28T07:47:47.965Z,98693.25
2023-04-28T07:50:16.356Z,98684.44
2023-04-28T07:52:44.786Z,98695.16
2023-04-28T07:55:13.124Z,98691.66
2023-04-28T07:57:42.502Z,98690.19
2023-04-28T08:00:12.239Z,98686.06
2023-04-28T08:02:42.167Z,98684.88
2023-04-28T08:05:11.477Z,98682.94
2023-04-28T08:07:40.134Z,98681.78
2023-04-28T08:10:10.368Z,98681.78
2023-04-28T08:12:38.794Z,98689.47
2023-04-28T08:15:07.884Z,98692.22
2023-04-28T08:17:36.081Z,98694.09
2023-04-28T08:20:12.765Z,98697.03
2023-04-28T08:22:40.864Z,98701.19
2023-04-28T08:25:10.939Z,98698.53
2023-04-28T08:27:40.150Z,98707.75
2023-04-28T08:30:11.277Z,98712.88
2023-04-28T08:32:39.719Z,98708.00
2023-04-28T08:35:11.022Z,98712.78
2023-04-28T08:37:39.466Z,98709.31
2023-04-28T08:40:11.013Z,98700.25
2023-04-28T08:42:39.893Z,98704.44
2023-04-28T08:45:09.662Z,98705.00
2023-04-28T08:47:39.764Z,98703.09
2023-04-28T08:50:12.534Z,98699.84
2023-04-28T08:52:41.792Z,98708.31
2023-04-28T08:55:13.157Z,98710.47
2023-04-28T08:57:45.505Z,98713.50
2023-04-28T09:00:14.374Z,98703.66
2023-04-28T09:02:43.218Z,98709.69
2023-04-28T09:05:14.576Z,98710.94
2023-04-28T09:07:42.976Z,98718.31
2023-04-28T09:10:19.156Z,98711.22
2023-04-28T09:12:48.181Z,98717.84
2023-04-28T09:15:34.673Z,98719.13
2023-04-28T09:18:04.147Z,98716.94
2023-04-28T09:20:35.376Z,98719.78
2023-04-28T09:23:17.754Z,98714.16
2023-04-28T09:26:02.312Z,98714.50
2023-04-28T09:28:30.716Z,98713.44
2023-04-28T09:30:59.225Z,98709.81
2023-04-28T09:33:27.970Z,98706.41
2023-04-28T09:35:57.812Z,98712.56
2023-04-28T09:38:26.591Z,98709.84
2023-04-28T09:40:58.654Z,98717.13
2023-04-28T09:43:28.481Z,98719.63
2023-04-28T09:45:57.407Z,98724.91
2023-04-28T09:48:31.016Z,98727.94
2023-04-28T09:51:01.194Z,98719.50
2023-04-28T09:53:30.584Z,98726.81
2023-04-28T09:56:00.979Z,98728.19
2023-04-28T09:58:30.294Z,98726.88
2023-04-28T10:00:59.717Z,98726.53
2023-04-28T10:03:30.244Z,98722.75
2023-04-28T10:06:00.621Z,98731.69
2023-04-28T10:08:29.794Z,98730.53
2023-04-28T10:10:58.711Z,98729.63
2023-04-28T10:13:27.082Z,98723.75
2023-04-28T10:15:58.208Z,98727.84
2023-04-28T10:18:27.637Z,98732.91
2023-04-28T10:21:03.289Z,98723.06
2023-04-28T10:23:53.085Z,98720.84
2023-04-28T10:26:22.131Z,98723.22
2023-04-28T10:28:51.458Z,98727.78
2023-04-28T10:31:22.915Z,98734.56
2023-04-28T10:33:51.465Z,98732.66
2023-04-28T10:36:52.978Z,98721.13
2023-04-28T10:39:23.622Z,98718.22
2023-04-28T10:41:51.851Z,98699.31
2023-04-28T10:44:45.196Z,98701.34
2023-04-28T10:47:15.087Z,98706.66
2023-04-28T10:50:11.640Z,98697.19
2023-04-28T10:52:54.084Z,98698.69
2023-04-28T10:55:33.114Z,98689.31
2023-04-28T10:58:34.452Z,98682.22
2023-04-28T11:01:28.563Z,98675.66
2023-04-28T11:04:03.422Z,98664.16
2023-04-28T11:06:34.501Z,98661.06
2023-04-28T11:09:05.634Z,98672.25
2023-04-28T11:11:35.204Z,98674.44
2023-04-28T11:14:35.205Z,98665.72
2023-04-28T11:17:05.506Z,98662.06
2023-04-28T11:19:36.040Z,98653.09
2023-04-28T11:22:10.081Z,98655.09
2023-04-28T11:24:39.759Z,98651.50
2023-04-28T11:27:08.629Z,98652.72
2023-04-28T11:29:38.536Z,98657.38
2023-04-28T11:32:08.182Z,98650.75
2023-04-28T11:34:37.121Z,98658.28
2023-04-28T11:37:07.290Z,98649.44
2023-04-28T11:39:36.362Z,98639.72
2023-04-28T11:42:12.580Z,98645.41
2023-04-28T11:44:40.812Z,98639.78
2023-04-28T11:47:09.367Z,98628.28
2023-04-28T11:49:45.332Z,98635.69
2023-04-28T11:52:14.208Z,98629.81
2023-04-28T11:54:43.781Z,98640.75
2023-04-28T11:57:20.653Z,98649.19
2023-04-28T11:59:49.854Z,98643.63
2023-04-28T12:02:28.232Z,98639.38
2023-04-28T12:04:56.627Z,98632.28
2023-04-28T12:07:24.744Z,98624.81
2023-04-28T12:10:16.063Z,98622.25
2023-04-28T12:12:52.525Z,98619.25
2023-04-28T12:15:22.935Z,98620.44
2023-04-28T12:17:52.009Z,98619.72
2023-04-28T12:20:36.800Z,98618.97
2023-04-28T12:23:05.543Z,98613.72
2023-04-28T12:25:35.527Z,98604.97
2023-04-28T12:28:07.853Z,98608.63
2023-04-28T12:30:42.751Z,98613.91
2023-04-28T12:33:24.175Z,98600.78
2023-04-28T12:35:53.877Z,98602.59
2023-04-28T12:38:21.955Z,98613.56
2023-04-28T12:40:50.376Z,98609.09
2023-04-28T12:43:21.351Z,98612.63
2023-04-28T12:45:50.154Z,98610.66
2023-04-28T12:48:18.653Z,98618.25
2023-04-28T12:50:47.507Z,98621.91
2023-04-28T12:53:15.744Z,98608.03
2023-04-28T12:55:44.145Z,98605.63
2023-04-28T12:58:12.583Z,98611.69
2023-04-28T13:00:42.149Z,98612.81
2023-04-28T13:03:10.265Z,98608.31
2023-04-28T13:05:38.771Z,98603.53
2023-04-28T13:08:06.993Z,98597.19
2023-04-28T13:10:35.303Z,98599.84
2023-04-28T13:13:03.604Z,98596.19
2023-04-28T13:15:32.886Z,98597.06
2023-04-28T13:18:02.541Z,98596.34
2023-04-28T13:20:30.859Z,98585.56
2023-04-28T13:22:59.000Z,98590.63
2023-04-28T13:25:27.059Z,98586.88
2023-04-28T13:27:55.237Z,98588.25
2023-04-28T13:30:23.439Z,98591.78
2023-04-28T13:32:52.186Z,98596.22
2023-04-28T13:35:22.416Z,98590.19
2023-04-28T13:37:50.519Z,98583.88
2023-04-28T13:40:19.272Z,98584.28
2023-04-28T13:42:47.687Z,98589.59
2023-04-28T13:45:17.744Z,98579.75
2023-04-28T13:47:46.196Z,98562.31
2023-04-28T13:50:14.154Z,98569.34
2023-04-28T13:52:43.976Z,98547.88
2023-04-28T13:55:12.390Z,98544.84
2023-04-28T13:57:42.082Z,98544.22
2023-04-28T14:00:11.585Z,98539.34
2023-04-28T14:02:40.417Z,98532.00
2023-04-28T14:05:09.519Z,98524.16
2023-04-28T14:07:39.548Z,98515.88
2023-04-28T14:10:11.199Z,98517.53
2023-04-28T14:12:40.019Z,98512.06
2023-04-28T14:15:09.060Z,98500.25
2023-04-28T14:17:39.729Z,98502.53
2023-04-28T14:20:11.734Z,98505.84
2023-04-28T14:22:40.146Z,98524.81
2023-04-28T14:25:11.610Z,98533.50
2023-04-28T14:27:40.074Z,98532.16
2023-04-28T14:30:09.842Z,98539.66
2023-04-28T14:32:40.397Z,98548.78
2023-04-28T14:35:09.536Z,98544.75
2023-04-28T14:37:38.100Z,98542.56
2023-04-28T14:40:08.002Z,98535.50
2023-04-28T14:42:38.428Z,98535.44
2023-04-28T14:45:09.193Z,98535.44
2023-04-28T14:47:38.861Z,98525.16
2023-04-28T14:50:08.256Z,98528.09
2023-04-28T14:52:37.244Z,98507.13
2023-04-28T14:55:06.592Z,98498.81
2023-04-28T14:57:35.789Z,98497.03
2023-04-28T15:00:07.389Z,98505.16
2023-04-28T15:02:35.942Z,98505.00
2023-04-28T15:05:04.854Z,98504.00
2023-04-28T15:07:34.649Z,98497.47
2023-04-28T15:10:03.039Z,98512.03
2023-04-28T15:12:32.152Z,98510.53
2023-04-28T15:15:00.669Z,98495.97
2023-04-28T15:17:30.398Z,98495.78
2023-04-28T15:19:58.765Z,98490.41
2023-04-28T15:22:27.126Z,98488.19
2023-04-28T15:24:55.967Z,98493.09
2023-04-28T15:27:24.165Z,98485.38
2023-04-28T15:29:52.454Z,98480.84
2023-04-28T15:32:20.819Z,98485.56
2023-04-28T15:34:50.634Z,98486.97
2023-04-28T15:37:43.117Z,98486.97
2023-04-28T15:40:13.151Z,98480.72
2023-04-28T15:42:42.355Z,98482.16
2023-04-28T15:45:12.197Z,98478.03
2023-04-28T15:47:40.770Z,98474.78
2023-04-28T15:50:12.516Z,98466.25
2023-04-28T15:52:46.015Z,98471.81
2023-04-28T15:55:15.299Z,98466.03
2023-04-28T15:57:44.770Z,98470.72
2023-04-28T16:00:14.965Z,98465.19
2023-04-28T16:02:44.033Z,98468.88
2023-04-28T16:05:14.297Z,98473.53
2023-04-28T16:07:43.125Z,98469.63
2023-04-28T16:10:12.595Z,98478.94
2023-04-28T16:12:42.018Z,98484.78
2023-04-28T16:15:13.007Z,98493.34
2023-04-28T16:17:42.616Z,98499.34
2023-04-28T16:20:12.441Z,98491.94
2023-04-28T16:22:42.878Z,98502.16
2023-04-28T16:25:12.339Z,98504.31
2023-04-28T16:27:41.857Z,98507.31
2023-04-28T16:30:10.945Z,98504.81
2023-04-28T16:32:41.092Z,98505.09
2023-04-28T16:35:15.168Z,98500.34
2023-04-28T16:37:45.512Z,98493.03
2023-04-28T16:40:16.041Z,98500.72
2023-04-28T16:42:45.642Z,98504.31
2023-04-28T16:45:14.354Z,98498.13
2023-04-28T16:47:44.089Z,98494.84
2023-04-28T16:50:15.973Z,98489.94
2023-04-28T16:52:46.267Z,98494.38
2023-04-28T16:55:14.839Z,98489.09
2023-04-28T16:57:43.133Z,98494.72
2023-04-28T17:00:12.550Z,98494.44
2023-04-28T17:02:40.829Z,98496.75
2023-04-28T17:05:10.085Z,98487.81
2023-04-28T17:07:38.074Z,98484.97
2023-04-28T17:10:09.136Z,98487.25
2023-04-28T17:12:37.417Z,98482.97
2023-04-28T17:15:06.969Z,98501.25
2023-04-28T17:17:35.299Z,98501.25
2023-04-28T17:20:03.597Z,98508.19
2023-04-28T17:22:33.287Z,98515.06
2023-04-28T17:25:01.637Z,98509.28
2023-04-28T17:27:31.224Z,98506.25
2023-04-28T17:30:00.498Z,98507.59
2023-04-28T17:32:28.780Z,98484.44
2023-04-28T17:34:56.841Z,98472.13
2023-04-28T17:37:24.874Z,98451.06
2023-04-28T17:39:53.399Z,98482.09
2023-04-28T17:42:22.015Z,98504.47
2023-04-28T17:44:52.164Z,98503.41
2023-04-28T17:47:20.517Z,98508.66
2023-04-28T17:49:48.838Z,98511.84
2023-04-28T17:52:17.102Z,98519.19
2023-04-28T17:54:45.222Z,98542.59
2023-04-28T17:57:14.596Z,98530.22
2023-04-28T17:59:44.806Z,98528.72
2023-04-28T18:02:14.798Z,98519.06
2023-04-28T18:04:43.470Z,98506.16
2023-04-28T18:07:11.942Z,98503.00
2023-04-28T18:09:41.988Z,98511.44
2023-04-28T18:12:10.554Z,98529.50
2023-04-28T18:14:41.471Z,98536.84
2023-04-28T18:17:09.845Z,98532.59
2023-04-28T18:19:39.858Z,98553.03
2023-04-28T18:22:10.923Z,98546.72
2023-04-28T18:24:39.896Z,98543.22
2023-04-28T18:27:08.147Z,98550.19
2023-04-28T18:29:36.820Z,98552.28
2023-04-28T18:32:04.962Z,98558.38
2023-04-28T18:34:33.192Z,98560.19
2023-04-28T18:37:03.161Z,98575.19
2023-04-28T18:39:32.041Z,98567.22
2023-04-28T18:42:00.491Z,98563.22
2023-04-28T18:44:29.209Z,98569.53
2023-04-28T18:46:57.682Z,98574.00
2023-04-28T18:49:27.165Z,98584.81
2023-04-28T18:51:56.083Z,98595.22
2023-04-28T18:54:27.481Z,98603.19
2023-04-28T18:56:57.621Z,98601.66
2023-04-28T18:59:27.332Z,98591.97
2023-04-28T19:01:55.679Z,98603.94
2023-04-28T19:04:24.406Z,98606.63
2023-04-28T19:06:52.488Z,98616.63
2023-04-28T19:09:21.093Z,98619.09
2023-04-28T19:11:50.690Z,98636.72
2023-04-28T19:14:19.799Z,98644.97
2023-04-28T19:16:47.945Z,98649.00
2023-04-28T19:19:16.412Z,98658.31
2023-04-28T19:21:45.521Z,98664.69
2023-04-28T19:24:14.143Z,98678.41
2023-04-28T19:26:42.366Z,98691.22
2023-04-28T19:29:17.327Z,98696.78
2023-04-28T19:31:46.060Z,98695.94
2023-04-28T19:34:14.418Z,98695.75
2023-04-28T19:36:42.805Z,98693.41
2023-04-28T19:39:10.875Z,98697.56
2023-04-28T19:41:38.974Z,98699.00
2023-04-28T19:44:07.329Z,98712.88
2023-04-28T19:46:37.298Z,98712.50
2023-04-28T19:49:05.482Z,98713.03
2023-04-28T19:51:33.483Z,98713.88
2023-04-28T19:54:03.147Z,98709.25
2023-04-28T19:56:32.974Z,98714.19
2023-04-28T19:59:01.807Z,98709.84
2023-04-28T20:01:30.301Z,98713.72
2023-04-28T20:04:00.681Z,98721.34
2023-04-28T20:06:32.035Z,98714.47
2023-04-28T20:09:00.496Z,98706.28
2023-04-28T20:11:28.847Z,98700.41
2023-04-28T20:13:57.473Z,98693.38
2023-04-28T20:16:26.688Z,98697.63
2023-04-28T20:18:55.135Z,98691.59
2023-04-28T20:21:25.124Z,98688.66
2023-04-28T20:23:53.490Z,98682.91
2023-04-28T20:26:23.035Z,98679.06
2023-04-28T20:28:51.886Z,98665.88
2023-04-28T20:31:20.116Z,98666.13
2023-04-28T20:33:48.323Z,98663.00
2023-04-28T20:36:16.475Z,98676.44
2023-04-28T20:38:46.409Z,98676.97
2023-04-28T20:41:14.562Z,98669.69
2023-04-28T20:43:42.901Z,98672.84
2023-04-28T20:46:13.842Z,98680.06
2023-04-28T20:48:43.255Z,98684.22
2023-04-28T20:51:11.695Z,98687.75
2023-04-28T20:53:40.010Z,98699.34
2023-04-28T20:56:09.872Z,98699.09
2023-04-28T20:58:38.058Z,98708.31
2023-04-28T21:01:06.255Z,98708.78
2023-04-28T21:03:35.877Z,98705.16
2023-04-28T21:06:04.225Z,98708.06
2023-04-28T21:08:32.537Z,98707.81
2023-04-28T21:11:00.929Z,98705.88
2023-04-28T21:13:30.673Z,98699.44
2023-04-28T21:15:59.347Z,98696.97
2023-04-28T21:18:27.954Z,98699.13
2023-04-28T21:20:56.721Z,98693.59
2023-04-28T21:23:25.557Z,98679.94
2023-04-28T21:25:53.692Z,98679.63
2023-04-28T21:28:22.088Z,98688.72
2023-04-28T21:30:54.752Z,98684.84
2023-04-28T21:33:23.790Z,98688.09
2023-04-28T21:35:55.042Z,98679.78
2023-04-28T21:38:23.293Z,98686.06
2023-04-28T21:40:52.865Z,98680.00
2023-04-28T21:43:22.500Z,98682.78
2023-04-28T21:45:52.456Z,98680.84
2023-04-28T21:48:22.613Z,98691.72
2023-04-28T21:50:51.094Z,98687.72
2023-04-28T21:53:19.270Z,98684.84
2023-04-28T21:55:47.574Z,98686.97
2023-04-28T21:58:15.979Z,98676.41
2023-04-28T22:00:46.677Z,98674.09
2023-04-28T22:03:16.021Z,98673.75
2023-04-28T22:05:46.463Z,98669.75
2023-04-28T22:08:15.823Z,98666.81
2023-04-28T22:10:45.803Z,98667.91
2023-04-28T22:13:14.437Z,98674.88
2023-04-28T22:15:44.287Z,98672.31
2023-04-28T22:18:12.960Z,98673.28
2023-04-28T22:20:41.569Z,98675.44
2023-04-28T22:23:11.164Z,98666.78
2023-04-28T22:25:39.767Z,98673.38
2023-04-28T22:28:08.196Z,98664.88
2023-04-28T22:30:36.434Z,98661.22
2023-04-28T22:33:05.245Z,98661.69
2023-04-28T22:35:33.371Z,98663.38
2023-04-28T22:38:01.926Z,98659.88
2023-04-28T22:40:33.579Z,98656.72
2023-04-28T22:43:01.934Z,98671.63
2023-04-28T22:45:30.118Z,98668.97
2023-04-28T22:47:58.461Z,98659.09
2023-04-28T22:50:28.880Z,98668.75
2023-04-28T22:52:57.272Z,98672.22
2023-04-28T22:55:26.933Z,98679.16
2023-04-28T22:57:56.529Z,98671.91
2023-04-28T23:00:24.752Z,98672.63
2023-04-28T23:02:53.475Z,98671.31
2023-04-28T23:05:21.678Z,98672.38
2023-04-28T23:07:49.747Z,98677.94
2023-04-28T23:10:19.187Z,98679.25
2023-04-28T23:12:47.287Z,98688.44
2023-04-28T23:15:17.303Z,98688.94
2023-04-28T23:17:45.568Z,98690.19
2023-04-28T23:20:14.373Z,98692.47
2023-04-28T23:22:43.003Z,98695.69
2023-04-28T23:25:11.713Z,98693.03
2023-04-28T23:27:41.445Z,98697.41
2023-04-28T23:30:12.156Z,98696.31
2023-04-28T23:32:42.574Z,98698.47
2023-04-28T23:35:11.327Z,98704.88
2023-04-28T23:37:39.381Z,98700.91
2023-04-28T23:40:10.029Z,98695.69
2023-04-28T23:42:41.617Z,98709.09
2023-04-28T23:45:11.362Z,98706.97
2023-04-28T23:47:40.592Z,98708.75
2023-04-28T23:50:11.983Z,98704.88
2023-04-28T23:52:40.560Z,98702.34
2023-04-28T23:55:10.614Z,98694.34
2023-04-28T23:57:39.163Z,98696.28
